• Join FlightAware (Why Join?)
  • Login
  • US Flag 
04:33AM EDT


 

Airport Tracker/Info


-or-


 

Live Flight TrackerFlight Track Log ✈ N500TC ✈ 28-May-2013 ✈ KFLO - KSOP

Flight Track Log - Related Links

Times and Time Zones

All times are in EDT time to prevent confusion due to time zone crossing. See the N500TC flight status page for this flight to view local times or setup timezone preferences in your user account.

Time Position Orientation Groundspeed Altitude Reporting Facility
EDT Latitude Longitude Course Direction KTS MPH feet Rate Location/Type
09:21PM 34.3361 -79.6764 15° North  Level Estimated
09:22PM 34.3663 -79.6668 15° North  Level Estimated
09:23PM 34.3964 -79.6573 15° North  Level Estimated
09:24PM 34.4266 -79.6478 15° North  Level Estimated
09:25PM 34.4567 -79.6382 15° North  Level Estimated
09:26PM 34.4869 -79.6287 15° North  Level Estimated
09:27PM 34.5170 -79.6191 15° North  Level Estimated
09:28PM 34.5472 -79.6095 15° North  Level Estimated
09:29PM 34.5773 -79.6000 15° North  Level Estimated
09:30PM 34.6074 -79.5904 15° North  Level Estimated
09:31PM 34.6376 -79.5808 15° North  Level Estimated
09:32PM 34.6677 -79.5712 15° North  Level Estimated
09:33PM 34.6979 -79.5616 15° North  Level Estimated
09:34PM 34.7280 -79.5520 15° North  Level Estimated
09:35PM 34.7581 -79.5424 15° North  Level Estimated
09:36PM 34.7883 -79.5328 15° North  Level Estimated
09:37PM 34.8184 -79.5231 15° North  Level Estimated
09:38PM 34.8486 -79.5135 15° North  Level Estimated
09:39PM 34.8787 -79.5038 15° North  Level Estimated
09:40PM 34.9089 -79.4942 15° North  Level Estimated
09:41PM 34.9390 -79.4845 15° North  Level Estimated
09:42PM 34.9691 -79.4749 15° North  Level Estimated
09:43PM 34.9993 -79.4652 15° North  Level Estimated
09:44PM 35.0294 -79.4555 15° North  Level Estimated
09:45PM 35.0595 -79.4458 15° North  Level Estimated
09:46PM 35.0896 -79.4361 15° North  Level Estimated
09:47PM 35.1198 -79.4264 15° North  Level Estimated
09:48PM 35.1499 -79.4167 15° North  Level Estimated
09:49PM 35.1800 -79.4070 15° North  Level Estimated
09:50PM 35.2102 -79.3973 15° North  Level Estimated
09:51PM 35.2380 -79.3883 15° North  Level Estimated
09:52PM 35.2380 -79.3883 54° Northeast  Level Estimated
09:53PM 35.2380 -79.3883 54° Northeast  Level Estimated
09:54PM 35.2380 -79.3883 54° Northeast  Level Estimated
09:55PM 35.2380 -79.3883 54° Northeast  Level Estimated
09:56PM 35.2380 -79.3883 54° Northeast  Level Estimated
09:57PM 35.2380 -79.3883 54° Northeast  Level Estimated
09:58PM 35.2380 -79.3883 54° Northeast  Level Estimated
09:59PM 35.2380 -79.3883 54° Northeast  Level Estimated
10:00PM 35.2380 -79.3883 54° Northeast  Level Estimated
10:01PM 35.2380 -79.3883 54° Northeast  Level Estimated
10:02PM 35.2380 -79.3883 54° Northeast  Level Estimated
10:03PM 35.2380 -79.3883 54° Northeast  Level Estimated
10:04PM 35.2380 -79.3883 54° Northeast  Level Estimated
10:05PM 35.2380 -79.3883 54° Northeast  Level Estimated
10:06PM 35.2380 -79.3883 54° Northeast  Level Estimated